sensor_id;sensor_type;location;lat;lon;timestamp;P1;durP1;ratioP1;P2;durP2;ratioP2
20966;SDS011;10642;50.682;18.510;2023-03-01T00:02:06;76.17;;;38.53;;
20966;SDS011;10642;50.682;18.510;2023-03-01T00:04:33;76.13;;;38.53;;
20966;SDS011;10642;50.682;18.510;2023-03-01T00:07:02;72.70;;;34.50;;
20966;SDS011;10642;50.682;18.510;2023-03-01T00:09:29;73.90;;;35.20;;
20966;SDS011;10642;50.682;18.510;2023-03-01T00:11:55;77.37;;;36.13;;
20966;SDS011;10642;50.682;18.510;2023-03-01T00:14:22;78.13;;;35.50;;
20966;SDS011;10642;50.682;18.510;2023-03-01T00:16:50;75.93;;;34.30;;
20966;SDS011;10642;50.682;18.510;2023-03-01T00:19:17;72.90;;;34.40;;
20966;SDS011;10642;50.682;18.510;2023-03-01T00:21:44;77.27;;;34.27;;
20966;SDS011;10642;50.682;18.510;2023-03-01T00:24:12;77.10;;;36.00;;
20966;SDS011;10642;50.682;18.510;2023-03-01T00:26:39;74.23;;;35.57;;
20966;SDS011;10642;50.682;18.510;2023-03-01T00:29:06;82.83;;;36.20;;
20966;SDS011;10642;50.682;18.510;2023-03-01T00:31:33;77.57;;;35.70;;
20966;SDS011;10642;50.682;18.510;2023-03-01T00:34:02;78.20;;;36.43;;
20966;SDS011;10642;50.682;18.510;2023-03-01T00:36:30;77.50;;;36.77;;
20966;SDS011;10642;50.682;18.510;2023-03-01T00:38:58;73.07;;;34.60;;
20966;SDS011;10642;50.682;18.510;2023-03-01T00:41:25;71.83;;;34.30;;
20966;SDS011;10642;50.682;18.510;2023-03-01T00:43:55;74.90;;;35.10;;
20966;SDS011;10642;50.682;18.510;2023-03-01T00:46:24;71.73;;;34.53;;
20966;SDS011;10642;50.682;18.510;2023-03-01T00:48:51;77.27;;;35.63;;
20966;SDS011;10642;50.682;18.510;2023-03-01T00:51:25;74.80;;;35.13;;
20966;SDS011;10642;50.682;18.510;2023-03-01T00:53:53;75.70;;;34.27;;
20966;SDS011;10642;50.682;18.510;2023-03-01T00:56:20;69.00;;;35.07;;
20966;SDS011;10642;50.682;18.510;2023-03-01T00:58:47;76.27;;;35.60;;
20966;SDS011;10642;50.682;18.510;2023-03-01T01:01:16;74.80;;;36.60;;
20966;SDS011;10642;50.682;18.510;2023-03-01T01:03:48;82.83;;;37.27;;
20966;SDS011;10642;50.682;18.510;2023-03-01T01:06:16;77.53;;;37.10;;
20966;SDS011;10642;50.682;18.510;2023-03-01T01:08:43;82.93;;;38.67;;
20966;SDS011;10642;50.682;18.510;2023-03-01T01:11:11;86.83;;;40.53;;
20966;SDS011;10642;50.682;18.510;2023-03-01T01:13:38;91.33;;;42.27;;
20966;SDS011;10642;50.682;18.510;2023-03-01T01:16:06;77.97;;;38.53;;
20966;SDS011;10642;50.682;18.510;2023-03-01T01:18:33;85.80;;;38.47;;
20966;SDS011;10642;50.682;18.510;2023-03-01T01:21:04;74.37;;;33.83;;
20966;SDS011;10642;50.682;18.510;2023-03-01T01:23:31;81.83;;;36.70;;
20966;SDS011;10642;50.682;18.510;2023-03-01T01:26:02;76.40;;;36.67;;
20966;SDS011;10642;50.682;18.510;2023-03-01T01:28:30;83.00;;;37.97;;
20966;SDS011;10642;50.682;18.510;2023-03-01T01:30:56;81.47;;;39.90;;
20966;SDS011;10642;50.682;18.510;2023-03-01T01:33:23;78.10;;;37.87;;
20966;SDS011;10642;50.682;18.510;2023-03-01T01:35:50;84.60;;;40.37;;
20966;SDS011;10642;50.682;18.510;2023-03-01T01:38:17;81.87;;;38.93;;
20966;SDS011;10642;50.682;18.510;2023-03-01T01:40:44;65.50;;;34.17;;
20966;SDS011;10642;50.682;18.510;2023-03-01T01:43:22;74.47;;;36.27;;
20966;SDS011;10642;50.682;18.510;2023-03-01T01:45:50;74.20;;;36.63;;
20966;SDS011;10642;50.682;18.510;2023-03-01T01:48:19;70.97;;;36.23;;
20966;SDS011;10642;50.682;18.510;2023-03-01T01:50:49;75.07;;;36.00;;
20966;SDS011;10642;50.682;18.510;2023-03-01T01:53:18;85.20;;;38.00;;
20966;SDS011;10642;50.682;18.510;2023-03-01T01:55:46;86.20;;;39.43;;
20966;SDS011;10642;50.682;18.510;2023-03-01T01:58:15;85.43;;;38.47;;
20966;SDS011;10642;50.682;18.510;2023-03-01T02:00:42;77.00;;;36.83;;
20966;SDS011;10642;50.682;18.510;2023-03-01T02:03:10;85.63;;;37.47;;
20966;SDS011;10642;50.682;18.510;2023-03-01T02:05:41;71.50;;;36.37;;
20966;SDS011;10642;50.682;18.510;2023-03-01T02:08:10;77.17;;;37.67;;
20966;SDS011;10642;50.682;18.510;2023-03-01T02:10:38;82.13;;;38.50;;
20966;SDS011;10642;50.682;18.510;2023-03-01T02:13:05;81.17;;;36.70;;
20966;SDS011;10642;50.682;18.510;2023-03-01T02:15:35;73.80;;;36.10;;
20966;SDS011;10642;50.682;18.510;2023-03-01T02:18:02;75.00;;;35.87;;
20966;SDS011;10642;50.682;18.510;2023-03-01T02:23:00;73.00;;;34.57;;
20966;SDS011;10642;50.682;18.510;2023-03-01T02:30:40;70.17;;;33.00;;
20966;SDS011;10642;50.682;18.510;2023-03-01T02:33:27;68.60;;;32.77;;
20966;SDS011;10642;50.682;18.510;2023-03-01T02:35:55;70.67;;;33.57;;
20966;SDS011;10642;50.682;18.510;2023-03-01T02:38:22;59.07;;;31.17;;
20966;SDS011;10642;50.682;18.510;2023-03-01T02:40:50;64.37;;;31.33;;
20966;SDS011;10642;50.682;18.510;2023-03-01T02:43:18;62.77;;;31.13;;
20966;SDS011;10642;50.682;18.510;2023-03-01T02:45:50;70.17;;;31.40;;
20966;SDS011;10642;50.682;18.510;2023-03-01T02:48:17;71.40;;;34.23;;
20966;SDS011;10642;50.682;18.510;2023-03-01T02:53:13;67.93;;;33.37;;
20966;SDS011;10642;50.682;18.510;2023-03-01T02:55:42;67.00;;;35.03;;
20966;SDS011;10642;50.682;18.510;2023-03-01T02:58:09;66.27;;;33.27;;
20966;SDS011;10642;50.682;18.510;2023-03-01T03:00:37;73.90;;;34.70;;
20966;SDS011;10642;50.682;18.510;2023-03-01T03:03:14;70.77;;;32.07;;
20966;SDS011;10642;50.682;18.510;2023-03-01T03:05:41;64.63;;;32.23;;
20966;SDS011;10642;50.682;18.510;2023-03-01T03:08:08;66.93;;;32.53;;
20966;SDS011;10642;50.682;18.510;2023-03-01T03:10:37;66.10;;;32.53;;
20966;SDS011;10642;50.682;18.510;2023-03-01T03:13:05;68.63;;;33.37;;
20966;SDS011;10642;50.682;18.510;2023-03-01T03:15:33;67.90;;;33.83;;
20966;SDS011;10642;50.682;18.510;2023-03-01T03:18:06;77.67;;;36.77;;
20966;SDS011;10642;50.682;18.510;2023-03-01T03:20:33;74.63;;;36.67;;
20966;SDS011;10642;50.682;18.510;2023-03-01T03:23:00;81.83;;;38.43;;
20966;SDS011;10642;50.682;18.510;2023-03-01T03:25:28;79.27;;;39.90;;
20966;SDS011;10642;50.682;18.510;2023-03-01T03:27:55;86.07;;;42.23;;
20966;SDS011;10642;50.682;18.510;2023-03-01T03:30:25;117.23;;;57.70;;
20966;SDS011;10642;50.682;18.510;2023-03-01T03:32:53;91.07;;;45.13;;
20966;SDS011;10642;50.682;18.510;2023-03-01T03:35:24;102.53;;;50.20;;
20966;SDS011;10642;50.682;18.510;2023-03-01T03:37:51;118.97;;;56.50;;
20966;SDS011;10642;50.682;18.510;2023-03-01T03:40:32;112.90;;;52.87;;
20966;SDS011;10642;50.682;18.510;2023-03-01T03:42:59;106.33;;;49.17;;
20966;SDS011;10642;50.682;18.510;2023-03-01T03:45:26;88.30;;;42.33;;
20966;SDS011;10642;50.682;18.510;2023-03-01T03:47:53;115.00;;;56.07;;
20966;SDS011;10642;50.682;18.510;2023-03-01T03:50:20;91.70;;;44.63;;
20966;SDS011;10642;50.682;18.510;2023-03-01T03:52:47;83.13;;;41.83;;
20966;SDS011;10642;50.682;18.510;2023-03-01T03:55:14;80.63;;;42.13;;
20966;SDS011;10642;50.682;18.510;2023-03-01T03:57:46;88.97;;;42.37;;
20966;SDS011;10642;50.682;18.510;2023-03-01T04:00:21;95.37;;;46.47;;
20966;SDS011;10642;50.682;18.510;2023-03-01T04:02:48;92.50;;;46.77;;
20966;SDS011;10642;50.682;18.510;2023-03-01T04:05:16;99.73;;;48.40;;
20966;SDS011;10642;50.682;18.510;2023-03-01T04:07:42;92.57;;;45.87;;
20966;SDS011;10642;50.682;18.510;2023-03-01T04:10:11;104.00;;;56.00;;
20966;SDS011;10642;50.682;18.510;2023-03-01T04:12:38;122.93;;;60.07;;
20966;SDS011;10642;50.682;18.510;2023-03-01T04:15:06;130.60;;;64.33;;
20966;SDS011;10642;50.682;18.510;2023-03-01T04:17:43;146.47;;;69.83;;
20966;SDS011;10642;50.682;18.510;2023-03-01T04:20:11;162.40;;;79.17;;
20966;SDS011;10642;50.682;18.510;2023-03-01T04:22:39;162.20;;;80.30;;
20966;SDS011;10642;50.682;18.510;2023-03-01T04:25:06;157.57;;;77.97;;
20966;SDS011;10642;50.682;18.510;2023-03-01T04:27:33;138.50;;;67.57;;
20966;SDS011;10642;50.682;18.510;2023-03-01T04:30:00;135.97;;;63.23;;
20966;SDS011;10642;50.682;18.510;2023-03-01T04:32:27;110.83;;;51.97;;
20966;SDS011;10642;50.682;18.510;2023-03-01T04:34:54;98.30;;;51.23;;
20966;SDS011;10642;50.682;18.510;2023-03-01T04:37:21;108.77;;;53.30;;
20966;SDS011;10642;50.682;18.510;2023-03-01T04:39:48;119.80;;;58.90;;
20966;SDS011;10642;50.682;18.510;2023-03-01T04:42:15;92.67;;;48.20;;
20966;SDS011;10642;50.682;18.510;2023-03-01T04:44:43;89.80;;;43.90;;
20966;SDS011;10642;50.682;18.510;2023-03-01T04:47:10;86.43;;;41.07;;
20966;SDS011;10642;50.682;18.510;2023-03-01T04:49:37;79.37;;;39.50;;
20966;SDS011;10642;50.682;18.510;2023-03-01T04:52:04;85.00;;;42.70;;
20966;SDS011;10642;50.682;18.510;2023-03-01T04:54:32;80.27;;;41.70;;
20966;SDS011;10642;50.682;18.510;2023-03-01T04:57:00;97.70;;;44.53;;
20966;SDS011;10642;50.682;18.510;2023-03-01T04:59:28;95.10;;;45.30;;
20966;SDS011;10642;50.682;18.510;2023-03-01T05:01:55;109.13;;;52.90;;
20966;SDS011;10642;50.682;18.510;2023-03-01T05:04:23;73.97;;;36.70;;
20966;SDS011;10642;50.682;18.510;2023-03-01T05:06:50;76.03;;;35.77;;
20966;SDS011;10642;50.682;18.510;2023-03-01T05:09:17;69.70;;;35.50;;
20966;SDS011;10642;50.682;18.510;2023-03-01T05:11:44;80.30;;;35.93;;
20966;SDS011;10642;50.682;18.510;2023-03-01T05:14:11;68.20;;;32.30;;
20966;SDS011;10642;50.682;18.510;2023-03-01T05:16:37;74.53;;;35.63;;
20966;SDS011;10642;50.682;18.510;2023-03-01T05:19:04;67.93;;;33.43;;
20966;SDS011;10642;50.682;18.510;2023-03-01T05:21:38;89.03;;;41.83;;
20966;SDS011;10642;50.682;18.510;2023-03-01T05:24:28;74.10;;;38.30;;
20966;SDS011;10642;50.682;18.510;2023-03-01T05:26:55;69.87;;;35.30;;
20966;SDS011;10642;50.682;18.510;2023-03-01T05:29:23;88.53;;;37.30;;
20966;SDS011;10642;50.682;18.510;2023-03-01T05:31:53;188.83;;;54.80;;
20966;SDS011;10642;50.682;18.510;2023-03-01T05:34:31;99.63;;;43.13;;
20966;SDS011;10642;50.682;18.510;2023-03-01T05:36:59;93.93;;;41.60;;
20966;SDS011;10642;50.682;18.510;2023-03-01T05:39:26;94.93;;;42.13;;
20966;SDS011;10642;50.682;18.510;2023-03-01T05:41:54;95.80;;;42.27;;
20966;SDS011;10642;50.682;18.510;2023-03-01T05:44:21;99.80;;;43.50;;
20966;SDS011;10642;50.682;18.510;2023-03-01T05:46:48;89.40;;;43.03;;
20966;SDS011;10642;50.682;18.510;2023-03-01T05:49:15;91.00;;;43.40;;
20966;SDS011;10642;50.682;18.510;2023-03-01T05:51:43;90.83;;;46.53;;
20966;SDS011;10642;50.682;18.510;2023-03-01T05:54:13;91.73;;;41.60;;
20966;SDS011;10642;50.682;18.510;2023-03-01T05:56:40;91.97;;;45.00;;
20966;SDS011;10642;50.682;18.510;2023-03-01T05:59:07;88.00;;;43.17;;
20966;SDS011;10642;50.682;18.510;2023-03-01T06:01:34;95.57;;;46.70;;
20966;SDS011;10642;50.682;18.510;2023-03-01T06:04:01;92.53;;;47.27;;
20966;SDS011;10642;50.682;18.510;2023-03-01T06:06:28;99.03;;;48.60;;
20966;SDS011;10642;50.682;18.510;2023-03-01T06:08:56;97.03;;;47.87;;
20966;SDS011;10642;50.682;18.510;2023-03-01T06:11:23;104.50;;;49.67;;
20966;SDS011;10642;50.682;18.510;2023-03-01T06:13:50;127.67;;;53.93;;
20966;SDS011;10642;50.682;18.510;2023-03-01T06:16:17;107.20;;;49.93;;
20966;SDS011;10642;50.682;18.510;2023-03-01T06:18:44;105.57;;;51.97;;
20966;SDS011;10642;50.682;18.510;2023-03-01T06:21:10;110.33;;;54.30;;
20966;SDS011;10642;50.682;18.510;2023-03-01T06:23:38;101.60;;;50.60;;
20966;SDS011;10642;50.682;18.510;2023-03-01T06:26:05;102.93;;;49.70;;
20966;SDS011;10642;50.682;18.510;2023-03-01T06:28:32;102.57;;;46.30;;
20966;SDS011;10642;50.682;18.510;2023-03-01T06:30:59;101.10;;;48.33;;
20966;SDS011;10642;50.682;18.510;2023-03-01T06:33:26;103.47;;;48.00;;
20966;SDS011;10642;50.682;18.510;2023-03-01T06:35:56;104.83;;;46.83;;
20966;SDS011;10642;50.682;18.510;2023-03-01T06:38:23;100.07;;;49.40;;
20966;SDS011;10642;50.682;18.510;2023-03-01T06:40:54;106.33;;;50.03;;
20966;SDS011;10642;50.682;18.510;2023-03-01T06:43:21;97.87;;;49.77;;
20966;SDS011;10642;50.682;18.510;2023-03-01T06:45:48;104.03;;;49.73;;
20966;SDS011;10642;50.682;18.510;2023-03-01T06:48:15;100.80;;;49.33;;
20966;SDS011;10642;50.682;18.510;2023-03-01T06:50:41;111.67;;;50.03;;
20966;SDS011;10642;50.682;18.510;2023-03-01T06:53:08;113.53;;;49.73;;
20966;SDS011;10642;50.682;18.510;2023-03-01T06:55:35;95.67;;;47.03;;
20966;SDS011;10642;50.682;18.510;2023-03-01T06:58:02;105.17;;;46.03;;
20966;SDS011;10642;50.682;18.510;2023-03-01T07:00:30;101.03;;;46.37;;
20966;SDS011;10642;50.682;18.510;2023-03-01T07:03:00;94.97;;;47.10;;
20966;SDS011;10642;50.682;18.510;2023-03-01T07:05:28;103.43;;;49.57;;
20966;SDS011;10642;50.682;18.510;2023-03-01T07:07:56;89.23;;;43.70;;
20966;SDS011;10642;50.682;18.510;2023-03-01T07:10:24;85.13;;;43.73;;
20966;SDS011;10642;50.682;18.510;2023-03-01T07:12:53;92.50;;;41.87;;
20966;SDS011;10642;50.682;18.510;2023-03-01T07:15:20;84.43;;;42.03;;
20966;SDS011;10642;50.682;18.510;2023-03-01T07:17:47;81.03;;;41.13;;
20966;SDS011;10642;50.682;18.510;2023-03-01T07:20:17;79.23;;;38.67;;
20966;SDS011;10642;50.682;18.510;2023-03-01T07:22:44;83.50;;;40.67;;
20966;SDS011;10642;50.682;18.510;2023-03-01T07:25:11;79.57;;;40.57;;
20966;SDS011;10642;50.682;18.510;2023-03-01T07:27:38;83.90;;;39.57;;
20966;SDS011;10642;50.682;18.510;2023-03-01T07:30:05;101.30;;;48.37;;
20966;SDS011;10642;50.682;18.510;2023-03-01T07:32:32;150.97;;;69.07;;
20966;SDS011;10642;50.682;18.510;2023-03-01T07:34:59;76.13;;;38.20;;
20966;SDS011;10642;50.682;18.510;2023-03-01T07:37:26;78.13;;;37.33;;
20966;SDS011;10642;50.682;18.510;2023-03-01T07:39:52;78.70;;;37.90;;
20966;SDS011;10642;50.682;18.510;2023-03-01T07:42:19;80.47;;;38.30;;
20966;SDS011;10642;50.682;18.510;2023-03-01T07:44:46;79.87;;;37.43;;
20966;SDS011;10642;50.682;18.510;2023-03-01T07:47:13;71.63;;;36.00;;
20966;SDS011;10642;50.682;18.510;2023-03-01T07:49:40;73.03;;;34.53;;
20966;SDS011;10642;50.682;18.510;2023-03-01T07:52:09;69.13;;;36.23;;
20966;SDS011;10642;50.682;18.510;2023-03-01T07:54:36;68.30;;;33.97;;
20966;SDS011;10642;50.682;18.510;2023-03-01T07:57:03;73.70;;;35.23;;
20966;SDS011;10642;50.682;18.510;2023-03-01T07:59:29;68.03;;;33.90;;
20966;SDS011;10642;50.682;18.510;2023-03-01T08:01:56;69.33;;;35.40;;
20966;SDS011;10642;50.682;18.510;2023-03-01T08:04:24;63.10;;;33.07;;
20966;SDS011;10642;50.682;18.510;2023-03-01T08:06:54;68.87;;;33.73;;
20966;SDS011;10642;50.682;18.510;2023-03-01T08:09:21;64.87;;;32.60;;
20966;SDS011;10642;50.682;18.510;2023-03-01T08:11:48;64.60;;;32.67;;
20966;SDS011;10642;50.682;18.510;2023-03-01T08:14:15;68.90;;;33.93;;
20966;SDS011;10642;50.682;18.510;2023-03-01T08:16:42;71.30;;;34.97;;
20966;SDS011;10642;50.682;18.510;2023-03-01T08:19:10;64.33;;;33.33;;
20966;SDS011;10642;50.682;18.510;2023-03-01T08:21:37;65.37;;;34.43;;
20966;SDS011;10642;50.682;18.510;2023-03-01T08:24:04;63.00;;;32.43;;
20966;SDS011;10642;50.682;18.510;2023-03-01T08:26:32;65.13;;;32.70;;
20966;SDS011;10642;50.682;18.510;2023-03-01T08:28:59;65.43;;;32.87;;
20966;SDS011;10642;50.682;18.510;2023-03-01T08:31:34;65.03;;;32.07;;
20966;SDS011;10642;50.682;18.510;2023-03-01T08:34:05;62.20;;;31.97;;
20966;SDS011;10642;50.682;18.510;2023-03-01T08:36:34;60.83;;;31.87;;
20966;SDS011;10642;50.682;18.510;2023-03-01T08:39:02;64.43;;;32.03;;
20966;SDS011;10642;50.682;18.510;2023-03-01T08:41:29;60.58;;;30.77;;
20966;SDS011;10642;50.682;18.510;2023-03-01T08:43:56;60.20;;;30.40;;
20966;SDS011;10642;50.682;18.510;2023-03-01T08:46:29;62.83;;;32.27;;
20966;SDS011;10642;50.682;18.510;2023-03-01T08:48:56;64.63;;;32.03;;
20966;SDS011;10642;50.682;18.510;2023-03-01T08:51:24;61.17;;;27.10;;
20966;SDS011;10642;50.682;18.510;2023-03-01T08:53:51;47.63;;;24.13;;
20966;SDS011;10642;50.682;18.510;2023-03-01T08:56:18;44.90;;;23.87;;
20966;SDS011;10642;50.682;18.510;2023-03-01T08:58:46;37.57;;;20.10;;
20966;SDS011;10642;50.682;18.510;2023-03-01T09:01:14;40.10;;;19.90;;
20966;SDS011;10642;50.682;18.510;2023-03-01T09:03:42;40.17;;;21.40;;
20966;SDS011;10642;50.682;18.510;2023-03-01T09:06:09;40.57;;;20.10;;
20966;SDS011;10642;50.682;18.510;2023-03-01T09:08:38;36.40;;;18.27;;
20966;SDS011;10642;50.682;18.510;2023-03-01T09:11:05;35.57;;;19.17;;
20966;SDS011;10642;50.682;18.510;2023-03-01T09:13:32;36.03;;;18.43;;
20966;SDS011;10642;50.682;18.510;2023-03-01T09:16:03;42.17;;;21.23;;
20966;SDS011;10642;50.682;18.510;2023-03-01T09:18:31;100.63;;;53.50;;
20966;SDS011;10642;50.682;18.510;2023-03-01T09:21:02;34.33;;;19.20;;
20966;SDS011;10642;50.682;18.510;2023-03-01T09:23:30;36.40;;;20.60;;
20966;SDS011;10642;50.682;18.510;2023-03-01T09:25:57;38.70;;;21.07;;
20966;SDS011;10642;50.682;18.510;2023-03-01T09:28:24;44.20;;;22.20;;
20966;SDS011;10642;50.682;18.510;2023-03-01T09:30:59;39.53;;;19.90;;
20966;SDS011;10642;50.682;18.510;2023-03-01T09:33:26;37.13;;;20.73;;
20966;SDS011;10642;50.682;18.510;2023-03-01T09:36:00;42.63;;;21.97;;
20966;SDS011;10642;50.682;18.510;2023-03-01T09:38:27;40.47;;;21.30;;
20966;SDS011;10642;50.682;18.510;2023-03-01T09:40:54;45.30;;;21.20;;
20966;SDS011;10642;50.682;18.510;2023-03-01T09:43:23;44.50;;;21.40;;
20966;SDS011;10642;50.682;18.510;2023-03-01T09:45:53;43.13;;;22.00;;
20966;SDS011;10642;50.682;18.510;2023-03-01T09:48:21;44.57;;;22.97;;
20966;SDS011;10642;50.682;18.510;2023-03-01T09:50:50;49.03;;;24.63;;
20966;SDS011;10642;50.682;18.510;2023-03-01T09:53:18;47.27;;;22.83;;
20966;SDS011;10642;50.682;18.510;2023-03-01T09:55:57;43.37;;;23.53;;
20966;SDS011;10642;50.682;18.510;2023-03-01T10:03:45;38.57;;;20.83;;
20966;SDS011;10642;50.682;18.510;2023-03-01T10:06:21;39.90;;;20.77;;
20966;SDS011;10642;50.682;18.510;2023-03-01T10:09:02;47.00;;;22.17;;
20966;SDS011;10642;50.682;18.510;2023-03-01T10:11:37;41.83;;;21.17;;
20966;SDS011;10642;50.682;18.510;2023-03-01T10:16:55;39.37;;;21.20;;
20966;SDS011;10642;50.682;18.510;2023-03-01T10:22:01;41.10;;;20.93;;
20966;SDS011;10642;50.682;18.510;2023-03-01T10:24:31;44.70;;;22.53;;
20966;SDS011;10642;50.682;18.510;2023-03-01T10:27:01;43.20;;;21.53;;
20966;SDS011;10642;50.682;18.510;2023-03-01T10:29:30;41.30;;;20.00;;
20966;SDS011;10642;50.682;18.510;2023-03-01T10:31:58;42.33;;;21.03;;
20966;SDS011;10642;50.682;18.510;2023-03-01T10:34:32;39.90;;;21.07;;
20966;SDS011;10642;50.682;18.510;2023-03-01T10:37:08;42.37;;;20.53;;
20966;SDS011;10642;50.682;18.510;2023-03-01T10:39:35;37.50;;;19.57;;
20966;SDS011;10642;50.682;18.510;2023-03-01T10:44:45;31.63;;;17.23;;
20966;SDS011;10642;50.682;18.510;2023-03-01T10:47:14;34.50;;;18.20;;
20966;SDS011;10642;50.682;18.510;2023-03-01T10:49:54;38.57;;;18.20;;
20966;SDS011;10642;50.682;18.510;2023-03-01T10:52:43;34.97;;;17.97;;
20966;SDS011;10642;50.682;18.510;2023-03-01T10:57:39;37.60;;;18.40;;
20966;SDS011;10642;50.682;18.510;2023-03-01T11:00:16;36.67;;;19.23;;
20966;SDS011;10642;50.682;18.510;2023-03-01T11:05:25;36.43;;;19.07;;
20966;SDS011;10642;50.682;18.510;2023-03-01T11:07:55;33.97;;;18.83;;
20966;SDS011;10642;50.682;18.510;2023-03-01T11:10:27;40.53;;;21.97;;
20966;SDS011;10642;50.682;18.510;2023-03-01T11:13:04;40.40;;;20.57;;
20966;SDS011;10642;50.682;18.510;2023-03-01T11:15:31;41.10;;;21.70;;
20966;SDS011;10642;50.682;18.510;2023-03-01T11:17:58;39.93;;;19.57;;
20966;SDS011;10642;50.682;18.510;2023-03-01T11:20:39;44.73;;;22.27;;
20966;SDS011;10642;50.682;18.510;2023-03-01T11:23:10;43.30;;;22.40;;
20966;SDS011;10642;50.682;18.510;2023-03-01T11:25:37;51.27;;;26.07;;
20966;SDS011;10642;50.682;18.510;2023-03-01T11:28:06;39.77;;;21.20;;
20966;SDS011;10642;50.682;18.510;2023-03-01T11:31:17;45.00;;;21.13;;
20966;SDS011;10642;50.682;18.510;2023-03-01T11:33:37;37.37;;;19.87;;
20966;SDS011;10642;50.682;18.510;2023-03-01T11:38:42;35.07;;;20.30;;
20966;SDS011;10642;50.682;18.510;2023-03-01T11:41:19;37.47;;;19.13;;
20966;SDS011;10642;50.682;18.510;2023-03-01T11:56:39;29.30;;;16.80;;
20966;SDS011;10642;50.682;18.510;2023-03-01T11:59:15;30.03;;;16.40;;
20966;SDS011;10642;50.682;18.510;2023-03-01T12:01:56;32.77;;;17.33;;
20966;SDS011;10642;50.682;18.510;2023-03-01T12:04:42;29.83;;;16.03;;
20966;SDS011;10642;50.682;18.510;2023-03-01T12:07:19;34.60;;;16.47;;
20966;SDS011;10642;50.682;18.510;2023-03-01T12:10:15;26.60;;;13.60;;
20966;SDS011;10642;50.682;18.510;2023-03-01T12:16:10;21.47;;;10.00;;
20966;SDS011;10642;50.682;18.510;2023-03-01T12:24:02;19.83;;;11.23;;
20966;SDS011;10642;50.682;18.510;2023-03-01T12:31:31;28.73;;;13.90;;
20966;SDS011;10642;50.682;18.510;2023-03-01T12:41:47;22.60;;;12.77;;
20966;SDS011;10642;50.682;18.510;2023-03-01T12:47:07;31.57;;;15.47;;
20966;SDS011;10642;50.682;18.510;2023-03-01T12:49:45;31.60;;;16.10;;
20966;SDS011;10642;50.682;18.510;2023-03-01T12:55:00;37.70;;;18.47;;
20966;SDS011;10642;50.682;18.510;2023-03-01T12:57:34;35.70;;;18.23;;
20966;SDS011;10642;50.682;18.510;2023-03-01T13:02:52;36.67;;;19.53;;
20966;SDS011;10642;50.682;18.510;2023-03-01T13:10:46;29.20;;;16.03;;
20966;SDS011;10642;50.682;18.510;2023-03-01T13:13:20;27.70;;;15.00;;
20966;SDS011;10642;50.682;18.510;2023-03-01T13:15:47;26.67;;;14.77;;
20966;SDS011;10642;50.682;18.510;2023-03-01T13:25:52;40.43;;;19.53;;
20966;SDS011;10642;50.682;18.510;2023-03-01T13:28:36;44.03;;;20.00;;
20966;SDS011;10642;50.682;18.510;2023-03-01T13:31:05;32.63;;;18.50;;
20966;SDS011;10642;50.682;18.510;2023-03-01T13:36:03;37.87;;;19.43;;
20966;SDS011;10642;50.682;18.510;2023-03-01T13:38:37;45.00;;;21.23;;
20966;SDS011;10642;50.682;18.510;2023-03-01T13:41:04;40.47;;;20.70;;
20966;SDS011;10642;50.682;18.510;2023-03-01T13:43:34;41.37;;;20.87;;
20966;SDS011;10642;50.682;18.510;2023-03-01T13:46:14;41.13;;;21.10;;
20966;SDS011;10642;50.682;18.510;2023-03-01T13:48:43;41.77;;;20.03;;
20966;SDS011;10642;50.682;18.510;2023-03-01T13:51:11;39.27;;;20.23;;
20966;SDS011;10642;50.682;18.510;2023-03-01T13:53:45;44.37;;;20.77;;
20966;SDS011;10642;50.682;18.510;2023-03-01T13:56:20;44.67;;;21.67;;
20966;SDS011;10642;50.682;18.510;2023-03-01T14:01:35;37.90;;;19.10;;
20966;SDS011;10642;50.682;18.510;2023-03-01T14:04:03;36.73;;;20.70;;
20966;SDS011;10642;50.682;18.510;2023-03-01T14:06:31;44.20;;;21.83;;
20966;SDS011;10642;50.682;18.510;2023-03-01T14:19:18;39.73;;;21.43;;
20966;SDS011;10642;50.682;18.510;2023-03-01T14:22:12;38.67;;;19.93;;
20966;SDS011;10642;50.682;18.510;2023-03-01T14:24:46;36.53;;;19.57;;
20966;SDS011;10642;50.682;18.510;2023-03-01T14:27:13;39.80;;;19.90;;
20966;SDS011;10642;50.682;18.510;2023-03-01T14:29:41;39.00;;;20.00;;
20966;SDS011;10642;50.682;18.510;2023-03-01T14:32:12;46.73;;;21.97;;
20966;SDS011;10642;50.682;18.510;2023-03-01T14:34:43;41.43;;;23.73;;
20966;SDS011;10642;50.682;18.510;2023-03-01T14:37:33;37.00;;;20.03;;
20966;SDS011;10642;50.682;18.510;2023-03-01T14:39:59;43.83;;;21.77;;
20966;SDS011;10642;50.682;18.510;2023-03-01T14:42:31;40.07;;;20.17;;
20966;SDS011;10642;50.682;18.510;2023-03-01T14:44:59;42.23;;;20.67;;
20966;SDS011;10642;50.682;18.510;2023-03-01T14:47:31;43.10;;;20.77;;
20966;SDS011;10642;50.682;18.510;2023-03-01T14:52:37;48.33;;;21.83;;
20966;SDS011;10642;50.682;18.510;2023-03-01T14:55:06;44.87;;;20.47;;
20966;SDS011;10642;50.682;18.510;2023-03-01T14:57:33;36.30;;;19.27;;
20966;SDS011;10642;50.682;18.510;2023-03-01T15:00:01;43.97;;;20.67;;
20966;SDS011;10642;50.682;18.510;2023-03-01T15:02:33;43.97;;;20.90;;
20966;SDS011;10642;50.682;18.510;2023-03-01T15:05:02;42.40;;;19.63;;
20966;SDS011;10642;50.682;18.510;2023-03-01T15:07:37;36.43;;;18.73;;
20966;SDS011;10642;50.682;18.510;2023-03-01T15:10:06;41.80;;;20.17;;
20966;SDS011;10642;50.682;18.510;2023-03-01T15:12:34;36.83;;;19.47;;
20966;SDS011;10642;50.682;18.510;2023-03-01T15:15:18;39.30;;;19.43;;
20966;SDS011;10642;50.682;18.510;2023-03-01T15:17:48;38.37;;;19.10;;
20966;SDS011;10642;50.682;18.510;2023-03-01T15:20:18;38.97;;;18.87;;
20966;SDS011;10642;50.682;18.510;2023-03-01T15:22:48;45.60;;;21.10;;
20966;SDS011;10642;50.682;18.510;2023-03-01T15:25:19;40.57;;;19.70;;
20966;SDS011;10642;50.682;18.510;2023-03-01T15:27:47;39.03;;;19.60;;
20966;SDS011;10642;50.682;18.510;2023-03-01T15:30:37;40.50;;;22.00;;
20966;SDS011;10642;50.682;18.510;2023-03-01T15:35:47;42.77;;;20.83;;
20966;SDS011;10642;50.682;18.510;2023-03-01T15:40:56;40.30;;;20.10;;
20966;SDS011;10642;50.682;18.510;2023-03-01T15:46:18;39.20;;;20.00;;
20966;SDS011;10642;50.682;18.510;2023-03-01T15:48:47;37.90;;;19.90;;
20966;SDS011;10642;50.682;18.510;2023-03-01T15:51:16;38.63;;;18.90;;
20966;SDS011;10642;50.682;18.510;2023-03-01T15:53:47;41.00;;;19.60;;
20966;SDS011;10642;50.682;18.510;2023-03-01T15:56:20;47.57;;;23.13;;
20966;SDS011;10642;50.682;18.510;2023-03-01T15:58:47;50.47;;;24.60;;
20966;SDS011;10642;50.682;18.510;2023-03-01T16:01:14;44.43;;;21.83;;
20966;SDS011;10642;50.682;18.510;2023-03-01T16:03:42;51.90;;;27.97;;
20966;SDS011;10642;50.682;18.510;2023-03-01T16:06:11;66.60;;;34.93;;
20966;SDS011;10642;50.682;18.510;2023-03-01T16:08:38;72.23;;;36.30;;
20966;SDS011;10642;50.682;18.510;2023-03-01T16:11:16;81.37;;;43.00;;
20966;SDS011;10642;50.682;18.510;2023-03-01T16:13:43;51.97;;;25.23;;
20966;SDS011;10642;50.682;18.510;2023-03-01T16:16:11;46.13;;;22.03;;